Time;durP1;ratioP1;P1;durP2;ratioP2;P2;SDS_P1;SDS_P2;PMS_P1;PMS_P2;Temp;Humidity;BMP_temperature;BMP_pressure;BME280_temperature;BME280_humidity;BME280_pressure;Samples;Min_cycle;Max_cycle;Signal;HPM_P1;HPM_P2
2022/09/16 00:00:23;;;;;;;8.40;3.73;;;;;;;;;;3387726;42;20082;-61
2022/09/16 00:02:51;;;;;;;9.02;3.95;;;;;;;;;;3396279;42;20163;-59
2022/09/16 00:05:17;;;;;;;10.18;4.35;;;;;;;;;;3380720;42;20589;-60
2022/09/16 00:07:43;;;;;;;8.00;3.90;;;;;;;;;;3397106;42;20128;-60
2022/09/16 00:10:09;;;;;;;8.85;4.30;;;;;;;;;;3395294;42;20596;-62
2022/09/16 00:12:35;;;;;;;9.07;4.03;;;;;;;;;;3396003;42;20619;-61
2022/09/16 00:15:02;;;;;;;8.32;3.97;;;;;;;;;;3396102;42;20163;-60
2022/09/16 00:17:28;;;;;;;8.45;4.00;;;;;;;;;;3386394;42;20086;-58
2022/09/16 00:19:55;;;;;;;8.00;3.72;;;;;;;;;;3398380;42;20086;-62
2022/09/16 00:22:21;;;;;;;7.80;3.88;;;;;;;;;;3396704;42;20594;-61
2022/09/16 00:24:50;;;;;;;9.87;3.97;;;;;;;;;;3395961;42;20090;-62
2022/09/16 00:27:16;;;;;;;8.10;4.10;;;;;;;;;;3386580;42;20086;-60
2022/09/16 00:29:42;;;;;;;8.32;4.10;;;;;;;;;;3395285;42;20108;-60
2022/09/16 00:32:07;;;;;;;9.82;3.72;;;;;;;;;;3396229;42;20136;-60
2022/09/16 00:34:33;;;;;;;8.60;4.00;;;;;;;;;;3395728;42;20492;-59
2022/09/16 00:37:02;;;;;;;8.57;3.38;;;;;;;;;;3396440;42;20492;-60
2022/09/16 00:39:28;;;;;;;7.88;3.80;;;;;;;;;;3386594;42;20116;-66
2022/09/16 00:41:54;;;;;;;8.07;3.78;;;;;;;;;;3395301;42;20090;-61
2022/09/16 00:44:58;;;;;;;8.53;3.47;;;;;;;;;;3395825;42;20554;-59
2022/09/16 00:47:53;;;;;;;7.57;3.70;;;;;;;;;;3396582;42;20167;-61
2022/09/16 00:50:31;;;;;;;8.10;3.42;;;;;;;;;;3393761;42;20589;-63
2022/09/16 00:52:57;;;;;;;8.68;3.78;;;;;;;;;;3380563;42;20094;-61
2022/09/16 00:55:26;;;;;;;7.55;3.47;;;;;;;;;;3385649;42;20100;-60
2022/09/16 00:57:52;;;;;;;8.30;3.10;;;;;;;;;;3387418;42;20498;-59
2022/09/16 01:00:18;;;;;;;9.38;3.45;;;;;;;;;;3397924;42;20090;-60
2022/09/16 01:02:44;;;;;;;8.48;3.50;;;;;;;;;;3386138;42;20145;-60
2022/09/16 01:05:15;;;;;;;8.70;3.58;;;;;;;;;;3387677;42;20098;-60
2022/09/16 01:07:43;;;;;;;7.45;3.17;;;;;;;;;;3376711;42;20093;-61
2022/09/16 01:10:09;;;;;;;7.60;3.70;;;;;;;;;;3397345;42;20082;-61
2022/09/16 01:12:35;;;;;;;8.07;3.80;;;;;;;;;;3397295;42;20092;-60
2022/09/16 01:15:01;;;;;;;7.30;3.40;;;;;;;;;;3395909;42;20101;-60
2022/09/16 01:17:35;;;;;;;8.35;3.67;;;;;;;;;;3386926;42;20612;-59
2022/09/16 01:20:27;;;;;;;7.85;3.70;;;;;;;;;;3378245;42;20177;-61
2022/09/16 01:23:23;;;;;;;7.90;3.83;;;;;;;;;;3384359;42;20097;-61
2022/09/16 01:25:58;;;;;;;7.53;3.58;;;;;;;;;;3374138;42;20102;-61
2022/09/16 01:28:41;;;;;;;7.60;3.55;;;;;;;;;;3385152;42;20168;-61
2022/09/16 01:31:17;;;;;;;7.97;3.67;;;;;;;;;;3374945;42;20082;-59
2022/09/16 01:34:14;;;;;;;7.47;3.63;;;;;;;;;;3382599;42;20139;-60
2022/09/16 01:36:55;;;;;;;8.63;3.40;;;;;;;;;;3384063;42;20102;-60
2022/09/16 01:39:27;;;;;;;8.13;3.38;;;;;;;;;;3384802;42;20079;-62
2022/09/16 01:42:01;;;;;;;10.45;3.70;;;;;;;;;;3394476;42;20567;-60
2022/09/16 01:44:30;;;;;;;8.85;3.50;;;;;;;;;;3394191;42;20158;-58
2022/09/16 01:47:08;;;;;;;8.95;3.55;;;;;;;;;;3394779;42;20109;-59
2022/09/16 01:49:42;;;;;;;8.43;3.53;;;;;;;;;;3378131;42;20167;-61
2022/09/16 01:52:22;;;;;;;8.30;3.45;;;;;;;;;;3384042;42;20106;-60
2022/09/16 01:54:53;;;;;;;8.38;3.33;;;;;;;;;;3383006;42;20514;-60
2022/09/16 01:57:42;;;;;;;8.73;3.50;;;;;;;;;;3369608;42;20120;-59
2022/09/16 02:00:10;;;;;;;7.55;3.30;;;;;;;;;;3381855;42;20103;-62
2022/09/16 02:02:51;;;;;;;8.67;3.77;;;;;;;;;;3376932;42;20096;-60
2022/09/16 02:05:31;;;;;;;8.30;3.45;;;;;;;;;;3379823;42;20883;-60
2022/09/16 02:08:07;;;;;;;8.68;3.40;;;;;;;;;;3384067;42;20142;-60
2022/09/16 02:10:44;;;;;;;11.45;3.58;;;;;;;;;;3382462;42;20098;-61
2022/09/16 02:13:15;;;;;;;7.38;3.50;;;;;;;;;;3372897;42;20086;-59
2022/09/16 02:15:41;;;;;;;8.47;3.60;;;;;;;;;;3383687;42;20082;-62
2022/09/16 02:18:11;;;;;;;7.38;3.38;;;;;;;;;;3372833;42;20159;-60
2022/09/16 02:20:43;;;;;;;8.82;3.58;;;;;;;;;;3372567;42;20576;-61
2022/09/16 02:23:16;;;;;;;8.43;4.20;;;;;;;;;;3382340;42;20166;-60
2022/09/16 02:25:43;;;;;;;9.25;3.67;;;;;;;;;;3374521;42;20149;-60
2022/09/16 02:28:12;;;;;;;9.50;3.60;;;;;;;;;;3371688;42;20091;-59
2022/09/16 02:30:40;;;;;;;7.93;3.50;;;;;;;;;;3382580;42;20549;-61
2022/09/16 02:33:06;;;;;;;8.63;3.50;;;;;;;;;;3372681;42;20137;-59
2022/09/16 02:35:35;;;;;;;6.72;2.97;;;;;;;;;;3370955;42;20098;-61
2022/09/16 02:38:08;;;;;;;12.02;3.80;;;;;;;;;;3376384;42;20082;-62
2022/09/16 02:40:39;;;;;;;7.77;3.10;;;;;;;;;;3371466;42;20468;-60
2022/09/16 02:43:05;;;;;;;9.27;3.33;;;;;;;;;;3383712;42;20165;-60
2022/09/16 02:45:39;;;;;;;9.73;3.33;;;;;;;;;;3391302;42;20209;-60
2022/09/16 02:48:13;;;;;;;7.35;3.33;;;;;;;;;;3383167;42;20112;-60
2022/09/16 02:50:43;;;;;;;8.73;3.40;;;;;;;;;;3392597;42;20102;-60
2022/09/16 02:53:31;;;;;;;8.65;3.22;;;;;;;;;;3376282;42;20095;-62
2022/09/16 02:56:02;;;;;;;8.00;3.20;;;;;;;;;;3376183;42;20201;-61
2022/09/16 02:58:28;;;;;;;7.45;3.22;;;;;;;;;;3371511;42;20079;-60
2022/09/16 03:00:54;;;;;;;7.80;3.35;;;;;;;;;;3374212;42;20106;-60
2022/09/16 03:03:20;;;;;;;8.53;3.40;;;;;;;;;;3383217;42;20140;-59
2022/09/16 03:06:02;;;;;;;9.52;3.15;;;;;;;;;;3370611;42;20098;-61
2022/09/16 03:08:28;;;;;;;7.82;3.10;;;;;;;;;;3382135;42;20098;-59
2022/09/16 03:10:54;;;;;;;8.25;3.17;;;;;;;;;;3383487;42;20160;-60
2022/09/16 03:13:42;;;;;;;8.38;3.58;;;;;;;;;;3371089;42;20082;-62
2022/09/16 03:16:15;;;;;;;7.83;3.57;;;;;;;;;;3392594;42;20139;-59
2022/09/16 03:19:05;;;;;;;9.23;3.55;;;;;;;;;;3373569;42;20110;-60
2022/09/16 03:21:50;;;;;;;8.95;3.75;;;;;;;;;;3381962;42;20592;-62
2022/09/16 03:24:31;;;;;;;7.63;3.35;;;;;;;;;;3382731;42;20113;-64
2022/09/16 03:27:03;;;;;;;8.10;3.60;;;;;;;;;;3396692;42;20090;-61
2022/09/16 03:29:36;;;;;;;8.07;3.80;;;;;;;;;;3383800;42;20107;-60
2022/09/16 03:32:02;;;;;;;7.57;3.50;;;;;;;;;;3383302;42;20095;-60
2022/09/16 03:34:39;;;;;;;8.95;3.70;;;;;;;;;;3393231;42;20093;-60
2022/09/16 03:37:07;;;;;;;8.13;3.53;;;;;;;;;;3373464;42;20553;-62
2022/09/16 03:39:33;;;;;;;11.33;3.57;;;;;;;;;;3385139;42;20082;-60
2022/09/16 03:42:01;;;;;;;7.43;3.53;;;;;;;;;;3383760;42;20551;-60
2022/09/16 03:44:34;;;;;;;8.52;4.20;;;;;;;;;;3384073;42;20561;-62
2022/09/16 03:47:02;;;;;;;9.57;3.80;;;;;;;;;;3394169;42;20174;-61
2022/09/16 03:49:29;;;;;;;7.78;3.60;;;;;;;;;;3385894;42;20103;-61
2022/09/16 03:51:55;;;;;;;9.50;4.07;;;;;;;;;;3384805;42;20121;-60
2022/09/16 03:54:22;;;;;;;9.75;3.75;;;;;;;;;;3393842;42;20195;-61
2022/09/16 03:56:48;;;;;;;10.93;4.20;;;;;;;;;;3393523;42;20125;-61
2022/09/16 03:59:14;;;;;;;8.32;3.67;;;;;;;;;;3384539;42;20168;-60
2022/09/16 04:01:39;;;;;;;9.18;3.88;;;;;;;;;;3393779;42;20156;-61
2022/09/16 04:04:06;;;;;;;10.33;3.80;;;;;;;;;;3393430;42;20089;-60
2022/09/16 04:06:31;;;;;;;9.85;3.80;;;;;;;;;;3384616;42;20106;-63
2022/09/16 04:08:59;;;;;;;9.75;3.78;;;;;;;;;;3393814;42;20082;-64
2022/09/16 04:11:28;;;;;;;8.73;4.10;;;;;;;;;;3393832;42;20090;-59
2022/09/16 04:13:54;;;;;;;11.93;3.72;;;;;;;;;;3393527;42;20098;-59
2022/09/16 04:16:20;;;;;;;8.30;3.87;;;;;;;;;;3393942;42;20129;-59
2022/09/16 04:18:47;;;;;;;9.05;3.70;;;;;;;;;;3393665;42;20090;-60
2022/09/16 04:21:13;;;;;;;9.50;3.97;;;;;;;;;;3393857;42;20099;-64
2022/09/16 04:23:39;;;;;;;11.90;3.65;;;;;;;;;;3384887;42;20147;-63
2022/09/16 04:26:05;;;;;;;8.43;3.50;;;;;;;;;;3394501;42;20087;-59
2022/09/16 04:28:31;;;;;;;8.60;3.50;;;;;;;;;;3393707;42;20557;-63
2022/09/16 04:31:01;;;;;;;8.25;3.70;;;;;;;;;;3393609;42;20083;-60
2022/09/16 04:33:28;;;;;;;8.25;4.05;;;;;;;;;;3393388;42;20636;-62
2022/09/16 04:36:12;;;;;;;8.57;3.72;;;;;;;;;;3393366;42;20204;-60
2022/09/16 04:38:39;;;;;;;8.20;3.80;;;;;;;;;;3393495;42;20074;-63
2022/09/16 04:41:16;;;;;;;9.43;4.30;;;;;;;;;;3384576;42;20078;-62
2022/09/16 04:43:42;;;;;;;9.15;4.18;;;;;;;;;;3381043;42;20168;-63
2022/09/16 04:46:08;;;;;;;8.30;4.30;;;;;;;;;;3394032;42;20070;-61
2022/09/16 04:48:34;;;;;;;11.80;4.22;;;;;;;;;;3393098;42;20146;-60
2022/09/16 04:51:05;;;;;;;10.82;4.20;;;;;;;;;;3393263;42;20431;-62
2022/09/16 04:53:32;;;;;;;7.87;3.70;;;;;;;;;;3384096;42;20201;-62
2022/09/16 04:56:05;;;;;;;9.07;3.95;;;;;;;;;;3384278;42;20121;-61
2022/09/16 04:58:31;;;;;;;8.82;4.40;;;;;;;;;;3393144;42;20555;-61
2022/09/16 05:01:06;;;;;;;10.43;5.13;;;;;;;;;;3393634;42;20545;-60
2022/09/16 05:03:32;;;;;;;9.00;4.80;;;;;;;;;;3385238;42;20074;-61
2022/09/16 05:06:09;;;;;;;12.10;4.90;;;;;;;;;;3385123;42;20475;-62
2022/09/16 05:08:35;;;;;;;15.18;4.90;;;;;;;;;;3382841;42;20209;-61
2022/09/16 05:11:10;;;;;;;9.57;4.72;;;;;;;;;;3394012;42;20221;-61
2022/09/16 05:13:36;;;;;;;9.38;4.50;;;;;;;;;;3393488;42;20105;-64
2022/09/16 05:16:07;;;;;;;9.75;4.25;;;;;;;;;;3392977;42;20555;-61
2022/09/16 05:18:34;;;;;;;10.10;4.70;;;;;;;;;;3384056;42;20094;-62
2022/09/16 05:21:00;;;;;;;8.38;4.40;;;;;;;;;;3391630;42;20090;-61
2022/09/16 05:23:26;;;;;;;9.10;4.40;;;;;;;;;;3380443;42;20106;-64
2022/09/16 05:25:52;;;;;;;12.50;4.93;;;;;;;;;;3377549;42;20086;-61
2022/09/16 05:28:19;;;;;;;12.73;4.85;;;;;;;;;;3392837;42;20109;-65
2022/09/16 05:30:45;;;;;;;9.83;5.20;;;;;;;;;;3376343;42;20557;-63
2022/09/16 05:33:11;;;;;;;11.45;4.68;;;;;;;;;;3393071;42;20096;-58
2022/09/16 05:35:37;;;;;;;10.70;4.65;;;;;;;;;;3393070;42;20086;-58
2022/09/16 05:38:03;;;;;;;10.02;4.53;;;;;;;;;;3393021;42;20117;-59
2022/09/16 05:40:29;;;;;;;10.73;4.80;;;;;;;;;;3384928;42;20109;-57
2022/09/16 05:42:55;;;;;;;10.05;4.32;;;;;;;;;;3396477;42;20082;-57
2022/09/16 05:45:21;;;;;;;8.48;4.40;;;;;;;;;;3397101;42;20094;-60
2022/09/16 05:47:47;;;;;;;9.68;4.65;;;;;;;;;;3395161;42;20093;-59
2022/09/16 05:50:14;;;;;;;10.98;4.68;;;;;;;;;;3368853;42;20099;-58
2022/09/16 05:52:40;;;;;;;9.20;4.50;;;;;;;;;;3374811;42;20106;-59
2022/09/16 05:55:06;;;;;;;9.50;4.55;;;;;;;;;;3375105;42;20095;-59
2022/09/16 05:57:32;;;;;;;9.48;4.40;;;;;;;;;;3375543;42;20158;-62
2022/09/16 05:59:58;;;;;;;13.63;5.30;;;;;;;;;;3375194;42;20130;-59
2022/09/16 06:02:24;;;;;;;8.77;4.73;;;;;;;;;;3374492;42;20092;-60
2022/09/16 06:04:50;;;;;;;11.15;4.97;;;;;;;;;;3373054;42;20095;-59
2022/09/16 06:07:16;;;;;;;11.00;4.82;;;;;;;;;;3374453;42;20540;-57
2022/09/16 06:09:42;;;;;;;11.25;5.05;;;;;;;;;;3371733;42;20118;-59
2022/09/16 06:12:08;;;;;;;11.07;5.25;;;;;;;;;;3373618;42;20099;-59
2022/09/16 06:14:35;;;;;;;9.80;4.80;;;;;;;;;;3370906;42;20185;-60
2022/09/16 06:17:01;;;;;;;9.15;4.65;;;;;;;;;;3375173;42;20161;-59
2022/09/16 06:19:27;;;;;;;8.45;4.68;;;;;;;;;;3375898;42;20126;-59
2022/09/16 06:21:53;;;;;;;12.10;4.97;;;;;;;;;;3374550;42;20573;-59
2022/09/16 06:24:19;;;;;;;7.80;4.30;;;;;;;;;;3374984;42;20095;-59
2022/09/16 06:26:45;;;;;;;10.10;4.70;;;;;;;;;;3374592;42;20143;-60
2022/09/16 06:29:12;;;;;;;9.30;4.82;;;;;;;;;;3375148;42;20687;-59
2022/09/16 06:31:38;;;;;;;9.80;4.68;;;;;;;;;;3374738;42;20572;-58
2022/09/16 06:34:04;;;;;;;10.65;4.55;;;;;;;;;;3374977;42;20177;-59
2022/09/16 06:36:32;;;;;;;12.80;4.70;;;;;;;;;;3374906;42;20083;-60
2022/09/16 06:38:58;;;;;;;12.77;4.80;;;;;;;;;;3375012;42;20087;-60
2022/09/16 06:41:24;;;;;;;8.73;3.95;;;;;;;;;;3375230;42;20160;-57
2022/09/16 06:43:50;;;;;;;7.88;4.05;;;;;;;;;;3372704;42;20507;-60
2022/09/16 06:46:18;;;;;;;7.88;3.92;;;;;;;;;;3374870;42;20080;-59
2022/09/16 06:48:47;;;;;;;7.77;4.30;;;;;;;;;;3374652;42;20095;-60
2022/09/16 06:51:15;;;;;;;7.68;3.22;;;;;;;;;;3378680;42;20099;-60
2022/09/16 06:53:41;;;;;;;8.95;3.10;;;;;;;;;;3382424;42;20146;-59
2022/09/16 06:56:12;;;;;;;7.15;3.30;;;;;;;;;;3384012;42;20156;-58
2022/09/16 06:58:40;;;;;;;8.38;3.40;;;;;;;;;;3384929;42;20490;-61
2022/09/16 07:01:08;;;;;;;7.93;3.30;;;;;;;;;;3385422;42;20466;-60
2022/09/16 07:03:36;;;;;;;9.13;3.20;;;;;;;;;;3385671;42;20095;-60
2022/09/16 07:06:02;;;;;;;6.47;3.25;;;;;;;;;;3385634;42;20106;-58
2022/09/16 07:08:30;;;;;;;6.85;3.30;;;;;;;;;;3383971;42;20099;-58
2022/09/16 07:11:06;;;;;;;7.03;3.38;;;;;;;;;;3385861;42;20105;-55
2022/09/16 07:13:32;;;;;;;6.43;3.47;;;;;;;;;;3387211;42;20093;-59
2022/09/16 07:16:20;;;;;;;8.43;3.60;;;;;;;;;;3385456;42;20091;-61
2022/09/16 07:18:47;;;;;;;7.70;3.60;;;;;;;;;;3386767;42;20082;-59
2022/09/16 07:21:14;;;;;;;8.05;3.60;;;;;;;;;;3387589;42;20094;-61
2022/09/16 07:23:40;;;;;;;7.30;3.75;;;;;;;;;;3386258;42;20142;-60
2022/09/16 07:26:15;;;;;;;7.33;3.90;;;;;;;;;;3372709;42;20088;-58
2022/09/16 07:29:00;;;;;;;6.80;3.85;;;;;;;;;;3384874;42;20110;-58
2022/09/16 07:31:28;;;;;;;8.32;3.60;;;;;;;;;;3382930;42;20095;-59
2022/09/16 07:33:55;;;;;;;9.70;3.70;;;;;;;;;;3384625;42;20160;-60
2022/09/16 07:36:24;;;;;;;6.90;3.50;;;;;;;;;;3384879;42;20099;-60
2022/09/16 07:38:50;;;;;;;7.40;3.90;;;;;;;;;;3382721;42;20091;-59
2022/09/16 07:41:17;;;;;;;7.18;3.72;;;;;;;;;;3384678;42;20904;-58
2022/09/16 07:43:44;;;;;;;7.90;3.88;;;;;;;;;;3385856;42;20091;-58
2022/09/16 07:46:10;;;;;;;7.35;3.70;;;;;;;;;;3384952;42;20584;-58
2022/09/16 07:48:36;;;;;;;8.63;3.65;;;;;;;;;;3384692;42;20138;-59
2022/09/16 07:51:08;;;;;;;8.90;3.60;;;;;;;;;;3388939;42;20185;-57
2022/09/16 07:53:34;;;;;;;7.47;3.70;;;;;;;;;;3394043;42;20101;-59
2022/09/16 07:56:04;;;;;;;8.10;3.90;;;;;;;;;;3395029;42;20137;-59
2022/09/16 07:58:30;;;;;;;6.93;3.63;;;;;;;;;;3386244;42;20098;-58
2022/09/16 08:00:57;;;;;;;7.63;3.95;;;;;;;;;;3393841;42;20094;-59
2022/09/16 08:03:22;;;;;;;9.50;3.87;;;;;;;;;;3393569;42;20091;-59
2022/09/16 08:05:48;;;;;;;7.32;3.80;;;;;;;;;;3384577;42;20090;-58
2022/09/16 08:08:14;;;;;;;6.90;3.45;;;;;;;;;;3393539;42;20091;-61
2022/09/16 08:10:40;;;;;;;9.23;3.70;;;;;;;;;;3393138;42;20104;-61
2022/09/16 08:13:07;;;;;;;6.57;3.43;;;;;;;;;;3393188;42;20152;-60
2022/09/16 08:15:33;;;;;;;7.13;3.40;;;;;;;;;;3393761;42;20568;-59
2022/09/16 08:17:59;;;;;;;8.27;3.80;;;;;;;;;;3393636;42;20540;-60
2022/09/16 08:20:25;;;;;;;7.70;3.60;;;;;;;;;;3393515;42;20094;-60
2022/09/16 08:22:52;;;;;;;7.35;3.45;;;;;;;;;;3383402;42;20138;-58
2022/09/16 08:25:17;;;;;;;7.40;3.80;;;;;;;;;;3383220;42;20162;-59
2022/09/16 08:27:44;;;;;;;9.02;3.75;;;;;;;;;;3393108;42;20695;-57
2022/09/16 08:30:10;;;;;;;7.80;3.28;;;;;;;;;;3393433;42;20142;-60
2022/09/16 08:32:36;;;;;;;7.82;3.90;;;;;;;;;;3393315;42;20533;-59
2022/09/16 08:35:02;;;;;;;8.17;3.40;;;;;;;;;;3393815;42;20082;-60
2022/09/16 08:37:28;;;;;;;7.20;3.35;;;;;;;;;;3393136;42;20078;-60
2022/09/16 08:39:54;;;;;;;7.78;3.38;;;;;;;;;;3374699;42;20110;-60
2022/09/16 08:42:30;;;;;;;6.55;3.40;;;;;;;;;;3383909;42;20164;-59
2022/09/16 08:45:11;;;;;;;8.47;3.80;;;;;;;;;;3390416;42;20160;-59
2022/09/16 08:47:43;;;;;;;7.90;3.70;;;;;;;;;;3383873;42;20180;-60
2022/09/16 08:50:16;;;;;;;7.70;4.03;;;;;;;;;;3393213;42;20090;-60
2022/09/16 08:52:42;;;;;;;7.35;3.50;;;;;;;;;;3383056;42;20098;-60
2022/09/16 08:55:24;;;;;;;6.97;3.30;;;;;;;;;;3372782;42;20134;-61
2022/09/16 08:58:04;;;;;;;6.30;3.20;;;;;;;;;;3373666;42;20171;-60
2022/09/16 09:00:30;;;;;;;6.95;3.30;;;;;;;;;;3382507;42;20098;-59
2022/09/16 09:02:59;;;;;;;15.80;3.45;;;;;;;;;;3395231;42;20167;-62
2022/09/16 09:05:28;;;;;;;7.38;2.85;;;;;;;;;;3395739;42;20095;-60
2022/09/16 09:08:29;;;;;;;6.95;2.90;;;;;;;;;;3394377;42;20129;-61
2022/09/16 09:11:19;;;;;;;6.73;3.27;;;;;;;;;;3345597;42;20231;-61
2022/09/16 09:13:51;;;;;;;6.05;2.92;;;;;;;;;;3379267;42;20094;-59
2022/09/16 09:16:36;;;;;;;6.30;2.78;;;;;;;;;;3392064;42;20544;-59
2022/09/16 09:19:13;;;;;;;6.85;2.78;;;;;;;;;;3393871;42;20113;-59
2022/09/16 09:22:08;;;;;;;8.50;3.40;;;;;;;;;;3393105;42;20112;-59
2022/09/16 09:24:43;;;;;;;6.83;2.57;;;;;;;;;;3393328;42;20110;-57
2022/09/16 09:27:09;;;;;;;6.10;2.75;;;;;;;;;;3393269;42;20171;-60
2022/09/16 09:29:41;;;;;;;7.88;2.80;;;;;;;;;;3384412;42;20662;-59
2022/09/16 09:32:39;;;;;;;63.78;6.32;;;;;;;;;;3383510;42;20090;-61
2022/09/16 09:35:14;;;;;;;7.32;3.10;;;;;;;;;;3392500;42;20086;-59
2022/09/16 09:37:46;;;;;;;6.60;3.00;;;;;;;;;;3393253;42;20088;-60
2022/09/16 09:40:34;;;;;;;6.70;3.20;;;;;;;;;;3382494;42;20639;-58
2022/09/16 09:43:09;;;;;;;7.38;3.30;;;;;;;;;;3382553;42;20720;-59
2022/09/16 09:45:41;;;;;;;6.30;3.08;;;;;;;;;;3392957;42;20091;-58
2022/09/16 09:48:41;;;;;;;7.47;3.65;;;;;;;;;;3383734;42;20095;-60
2022/09/16 09:51:42;;;;;;;7.00;3.63;;;;;;;;;;3382638;42;20095;-60
2022/09/16 09:54:25;;;;;;;7.30;3.88;;;;;;;;;;3380061;42;20138;-58
2022/09/16 09:57:01;;;;;;;7.65;3.60;;;;;;;;;;3384630;42;20138;-60
2022/09/16 10:00:09;;;;;;;7.20;3.78;;;;;;;;;;3370388;42;20149;-59
2022/09/16 10:02:35;;;;;;;8.27;3.60;;;;;;;;;;3382179;42;20555;-58
2022/09/16 10:05:01;;;;;;;8.33;3.87;;;;;;;;;;3368372;42;20181;-61
2022/09/16 10:07:27;;;;;;;10.35;3.85;;;;;;;;;;3383573;42;20159;-59
2022/09/16 10:09:56;;;;;;;8.73;3.83;;;;;;;;;;3374220;42;20561;-60
2022/09/16 10:12:40;;;;;;;7.43;3.85;;;;;;;;;;3371208;42;20263;-62
2022/09/16 10:15:21;;;;;;;7.18;3.63;;;;;;;;;;3384417;42;20083;-57
2022/09/16 10:17:51;;;;;;;7.70;3.90;;;;;;;;;;3381143;42;20088;-59
2022/09/16 10:20:34;;;;;;;9.80;4.20;;;;;;;;;;3383577;42;21151;-59
2022/09/16 10:23:18;;;;;;;7.57;4.13;;;;;;;;;;3380657;42;20095;-59
2022/09/16 10:25:44;;;;;;;8.02;4.30;;;;;;;;;;3383111;42;20142;-58
2022/09/16 10:28:24;;;;;;;7.35;3.70;;;;;;;;;;3381890;42;20086;-57
2022/09/16 10:30:54;;;;;;;7.80;3.90;;;;;;;;;;3381632;42;20087;-59
2022/09/16 10:33:31;;;;;;;7.60;3.75;;;;;;;;;;3381515;42;20095;-58
2022/09/16 10:36:10;;;;;;;12.27;3.85;;;;;;;;;;3384045;42;20662;-58
2022/09/16 10:38:41;;;;;;;7.25;3.78;;;;;;;;;;3383113;42;20125;-59
2022/09/16 10:41:13;;;;;;;7.60;3.88;;;;;;;;;;3381689;42;20651;-59
2022/09/16 10:43:44;;;;;;;8.17;3.70;;;;;;;;;;3382321;42;20166;-59
2022/09/16 10:46:13;;;;;;;7.18;3.70;;;;;;;;;;3383895;42;20098;-60
2022/09/16 10:48:40;;;;;;;7.40;3.78;;;;;;;;;;3375171;42;20107;-59
2022/09/16 10:51:06;;;;;;;10.32;3.95;;;;;;;;;;3379262;42;20167;-58
2022/09/16 10:53:34;;;;;;;7.57;3.70;;;;;;;;;;3375904;42;20091;-61
2022/09/16 10:56:05;;;;;;;7.20;3.70;;;;;;;;;;3377370;42;20176;-60
2022/09/16 10:58:31;;;;;;;7.47;3.85;;;;;;;;;;3379975;42;20219;-60
2022/09/16 11:01:00;;;;;;;7.85;3.80;;;;;;;;;;3377829;42;20158;-59
2022/09/16 11:03:45;;;;;;;8.15;4.03;;;;;;;;;;3375226;42;20130;-58
2022/09/16 11:06:16;;;;;;;8.18;4.15;;;;;;;;;;3377927;42;20204;-59
2022/09/16 11:09:07;;;;;;;8.67;3.90;;;;;;;;;;3376610;42;20103;-60
2022/09/16 11:11:42;;;;;;;7.13;3.67;;;;;;;;;;3371183;42;20102;-59
2022/09/16 11:14:30;;;;;;;8.85;3.92;;;;;;;;;;3367222;42;20131;-59
2022/09/16 11:17:02;;;;;;;7.45;3.92;;;;;;;;;;3373292;42;20103;-60
2022/09/16 11:19:52;;;;;;;7.13;3.70;;;;;;;;;;3380335;42;20541;-58
2022/09/16 11:22:31;;;;;;;7.93;4.07;;;;;;;;;;3369813;42;20146;-59
2022/09/16 11:25:05;;;;;;;10.25;3.90;;;;;;;;;;3370638;42;20083;-59
2022/09/16 11:27:50;;;;;;;9.20;3.88;;;;;;;;;;3377680;42;20584;-58
2022/09/16 11:30:21;;;;;;;9.43;3.75;;;;;;;;;;3380717;42;20605;-59
2022/09/16 11:33:26;;;;;;;7.35;4.07;;;;;;;;;;3378426;42;20087;-59
2022/09/16 11:36:05;;;;;;;8.13;4.07;;;;;;;;;;3376504;42;20091;-57
2022/09/16 11:38:37;;;;;;;7.10;3.83;;;;;;;;;;3379725;42;20553;-61
2022/09/16 11:41:09;;;;;;;7.82;4.15;;;;;;;;;;3380002;42;20698;-59
2022/09/16 11:43:53;;;;;;;8.60;3.95;;;;;;;;;;3379472;42;20714;-61
2022/09/16 11:46:25;;;;;;;9.68;4.07;;;;;;;;;;3372680;42;20584;-59
2022/09/16 11:49:12;;;;;;;7.77;3.83;;;;;;;;;;3377481;42;20557;-60
2022/09/16 11:52:04;;;;;;;8.38;3.80;;;;;;;;;;3383590;42;20096;-59
2022/09/16 11:55:07;;;;;;;7.18;3.97;;;;;;;;;;3381558;42;20095;-59
2022/09/16 11:57:42;;;;;;;7.38;3.97;;;;;;;;;;3391938;42;20110;-59
2022/09/16 12:00:12;;;;;;;8.57;4.25;;;;;;;;;;3384776;42;20102;-59
2022/09/16 12:02:56;;;;;;;8.73;4.30;;;;;;;;;;3385032;42;20540;-59
2022/09/16 12:05:33;;;;;;;7.72;3.90;;;;;;;;;;3391859;42;20105;-59
2022/09/16 12:08:09;;;;;;;7.88;3.80;;;;;;;;;;3372302;42;20612;-60
2022/09/16 12:10:37;;;;;;;8.65;4.05;;;;;;;;;;3395983;42;20125;-59
2022/09/16 12:13:26;;;;;;;8.23;4.30;;;;;;;;;;3386646;42;20091;-59
2022/09/16 12:15:57;;;;;;;8.33;4.03;;;;;;;;;;3385380;42;20149;-59
2022/09/16 12:18:41;;;;;;;9.55;4.57;;;;;;;;;;3384506;42;20587;-59
2022/09/16 12:21:27;;;;;;;11.45;4.82;;;;;;;;;;3388573;42;20082;-60
2022/09/16 12:23:59;;;;;;;8.63;4.18;;;;;;;;;;3373184;42;20108;-60
2022/09/16 12:26:26;;;;;;;10.38;4.53;;;;;;;;;;3374198;42;20161;-59
2022/09/16 12:29:18;;;;;;;8.93;4.50;;;;;;;;;;3386317;42;20604;-59
2022/09/16 12:32:11;;;;;;;9.25;4.65;;;;;;;;;;3384431;42;20098;-60
2022/09/16 12:35:05;;;;;;;8.15;4.38;;;;;;;;;;3371182;42;20150;-60
2022/09/16 12:37:35;;;;;;;8.73;4.38;;;;;;;;;;3384371;42;20144;-59
2022/09/16 12:40:02;;;;;;;7.82;4.05;;;;;;;;;;3375914;42;20174;-60
2022/09/16 12:42:46;;;;;;;9.23;4.53;;;;;;;;;;3384171;42;20105;-63
2022/09/16 12:45:32;;;;;;;8.30;4.43;;;;;;;;;;3394301;42;20144;-61
2022/09/16 12:48:24;;;;;;;11.05;4.80;;;;;;;;;;3383446;42;20165;-58
2022/09/16 12:51:07;;;;;;;8.15;4.20;;;;;;;;;;3379397;42;20087;-57
2022/09/16 12:54:01;;;;;;;9.02;4.28;;;;;;;;;;3384005;42;20106;-60
2022/09/16 12:56:45;;;;;;;8.80;4.37;;;;;;;;;;3384648;42;20117;-59
2022/09/16 12:59:20;;;;;;;8.65;4.22;;;;;;;;;;3379341;42;20504;-58
2022/09/16 13:01:49;;;;;;;8.32;4.47;;;;;;;;;;3383946;42;20581;-58
2022/09/16 13:04:28;;;;;;;7.97;4.20;;;;;;;;;;3384273;42;20093;-61
2022/09/16 13:06:58;;;;;;;8.68;4.80;;;;;;;;;;3381354;42;20470;-62
2022/09/16 13:09:30;;;;;;;8.20;4.27;;;;;;;;;;3384152;42;20117;-62
2022/09/16 13:12:19;;;;;;;9.25;4.35;;;;;;;;;;3380410;42;20123;-59
2022/09/16 13:14:50;;;;;;;9.65;4.40;;;;;;;;;;3381067;42;20107;-61
2022/09/16 13:17:28;;;;;;;8.57;4.35;;;;;;;;;;3382078;42;20094;-58
2022/09/16 13:19:54;;;;;;;8.52;4.30;;;;;;;;;;3382608;42;20091;-60
2022/09/16 13:22:36;;;;;;;8.73;4.47;;;;;;;;;;3382615;42;20109;-58
2022/09/16 13:25:19;;;;;;;8.80;4.30;;;;;;;;;;3378198;42;20500;-61
2022/09/16 13:28:21;;;;;;;10.05;4.53;;;;;;;;;;3383702;42;20174;-60
2022/09/16 13:30:47;;;;;;;8.20;4.75;;;;;;;;;;3382312;42;20150;-60
2022/09/16 13:33:27;;;;;;;9.70;4.68;;;;;;;;;;3380596;42;20099;-59
2022/09/16 13:36:22;;;;;;;8.87;4.47;;;;;;;;;;3384141;42;20158;-60
2022/09/16 13:38:56;;;;;;;8.35;4.32;;;;;;;;;;3374181;42;20436;-61
2022/09/16 13:41:34;;;;;;;8.50;4.30;;;;;;;;;;3382220;42;20564;-57
2022/09/16 13:44:02;;;;;;;9.82;4.53;;;;;;;;;;3380420;42;20188;-59
2022/09/16 13:46:30;;;;;;;12.70;4.97;;;;;;;;;;3380586;42;20091;-58
2022/09/16 13:49:03;;;;;;;9.13;4.67;;;;;;;;;;3382565;42;20170;-58
2022/09/16 13:51:31;;;;;;;10.25;4.78;;;;;;;;;;3371885;42;20486;-58
2022/09/16 13:54:03;;;;;;;10.18;5.47;;;;;;;;;;3378581;42;20091;-58
2022/09/16 13:56:36;;;;;;;10.25;5.05;;;;;;;;;;3379112;42;20526;-62
2022/09/16 13:59:40;;;;;;;9.65;5.03;;;;;;;;;;3379366;42;20156;-58
2022/09/16 14:02:20;;;;;;;11.47;5.30;;;;;;;;;;3378624;42;20482;-59
2022/09/16 14:05:04;;;;;;;13.50;5.05;;;;;;;;;;3381178;42;20083;-60
2022/09/16 14:07:36;;;;;;;12.27;5.10;;;;;;;;;;3378215;42;20438;-59
2022/09/16 14:10:14;;;;;;;9.93;4.82;;;;;;;;;;3382196;42;20150;-59
2022/09/16 14:12:46;;;;;;;11.73;5.43;;;;;;;;;;3384632;42;20130;-58
2022/09/16 14:15:12;;;;;;;9.67;4.50;;;;;;;;;;3381271;42;20079;-57
2022/09/16 14:17:41;;;;;;;9.05;4.80;;;;;;;;;;3380647;42;20157;-59
2022/09/16 14:20:15;;;;;;;9.52;4.90;;;;;;;;;;3379631;42;20134;-60
2022/09/16 14:22:43;;;;;;;9.63;4.90;;;;;;;;;;3372140;42;20162;-61
2022/09/16 14:25:28;;;;;;;9.50;4.70;;;;;;;;;;3380009;42;20156;-60
2022/09/16 14:28:18;;;;;;;11.95;4.82;;;;;;;;;;3382615;42;20126;-59
2022/09/16 14:30:49;;;;;;;8.88;4.60;;;;;;;;;;3381754;42;20083;-56
2022/09/16 14:33:16;;;;;;;9.73;5.15;;;;;;;;;;3371759;42;20095;-59
2022/09/16 14:35:43;;;;;;;13.93;5.07;;;;;;;;;;3368343;42;20548;-59
2022/09/16 14:38:12;;;;;;;11.30;5.20;;;;;;;;;;3379098;42;20144;-59
2022/09/16 14:40:38;;;;;;;9.88;5.13;;;;;;;;;;3369209;42;20603;-57
2022/09/16 14:43:05;;;;;;;10.27;5.38;;;;;;;;;;3372602;42;20090;-59
2022/09/16 14:45:31;;;;;;;11.20;5.45;;;;;;;;;;3379269;42;20152;-58
2022/09/16 14:48:00;;;;;;;11.15;5.35;;;;;;;;;;3370519;42;20091;-58
2022/09/16 14:50:31;;;;;;;10.70;5.17;;;;;;;;;;3384066;42;20160;-59
2022/09/16 14:53:02;;;;;;;12.60;5.68;;;;;;;;;;3390853;42;20477;-61
2022/09/16 14:55:29;;;;;;;10.50;5.28;;;;;;;;;;3390116;42;20118;-58
2022/09/16 14:57:56;;;;;;;14.38;5.78;;;;;;;;;;3382541;42;20636;-57
2022/09/16 15:00:40;;;;;;;13.15;5.22;;;;;;;;;;3381343;42;20573;-60
2022/09/16 15:03:24;;;;;;;12.83;5.53;;;;;;;;;;3372591;42;20078;-60
2022/09/16 15:05:50;;;;;;;11.57;5.20;;;;;;;;;;3390170;42;20129;-63
2022/09/16 15:08:39;;;;;;;11.77;5.72;;;;;;;;;;3390972;42;20179;-59
2022/09/16 15:11:13;;;;;;;10.10;5.38;;;;;;;;;;3370417;42;20097;-59
2022/09/16 15:13:39;;;;;;;10.57;5.47;;;;;;;;;;3382651;42;20555;-59